Strona główna
METAR-TAF:

METAR-TAF

Lotnisko :

Port lotniczy Bangkok-Suvarnabhumi

Bangkok-Suvarnabhumi, Tajlandia

Szerokość geograficzna: 13-40-52N, Długość geograficzna: 100-44-50E, wysokość: 2 m

Aktualna obserwacja pogody

Raport powstał 32 minut temu, godzina 03:00 UTC
Wiatr 5 kt od północny wschód, zmienny między północ i wschód
Temperatura 25°C
Wilgotność 47%
Ciśnienie 1016 hPa
Widzialność: 9000 m

METAR: VTBS 100300Z 05005KT 010V090 9000 NSC 25/13 Q1016 NOSIG

czas: 10:32 (03:32 UTC)

Prognoza

Raport powstał 4 godziny i 32 minut temu, godzina 23:00 UTC
Prognoza ważna od 10 godzina 00 UTC do 11 godzina 06 UTC
Wiatr 5 kt od północ
Widzialność: 6000 m
Mało chmury na wysokości 2500 ft
Stopniowe zmiany
od 10 godzina 02 UTC do 10 godzina 04 UTC
Wiatr 8 kt od wschodnio-północny wschód
Widzialność 10 km lub więcej

TAF: VTBS 092300Z 1000/1106 35005KT 6000 FEW025 BECMG 1002/1004 07008KT 9999

Obserwacja i prognoza pogody dla ponad 4000 lotnisk (raport METAR i TAF).

Dostępne stacje oznaczono żółtymi i czerwonymi punktami na mapie.

Najedź kursorem aby zobaczyć nazwę stacji.

Kliknij aby zobaczyć obserwacje i prognozy pogody.

Aby zmienić mapę: kliknij na zielony przycisk z czarnym krzyżykiem, aby powiększyć; na zielony przycisk z myślnikiem, aby pomniejszyć; na zielone strzałki, aby przejść do map sąsiednich.


METAR-TAF: